Time;durP1;ratioP1;P1;durP2;ratioP2;P2;SDS_P1;SDS_P2;PMS_P1;PMS_P2;Temp;Humidity;BMP_temperature;BMP_pressure;BME280_temperature;BME280_humidity;BME280_pressure;Samples;Min_cycle;Max_cycle;Signal;HPM_P1;HPM_P2
2021/12/08 00:00:51;;;;;;;3.67;2.10;;;5.70;99.90;;;;;;4993102;28;20904;-68
2021/12/08 00:03:18;;;;;;;2.20;1.53;;;5.70;99.90;;;;;;4993594;28;20234;-69
2021/12/08 00:05:44;;;;;;;3.80;2.47;;;5.60;99.90;;;;;;4992142;28;20419;-69
2021/12/08 00:08:12;;;;;;;1.60;1.50;;;5.70;99.90;;;;;;4992407;28;20407;-68
2021/12/08 00:13:19;;;;;;;4.03;2.33;;;5.70;99.90;;;;;;5001319;28;20461;-68
2021/12/08 00:15:47;;;;;;;6.00;1.90;;;5.80;99.90;;;;;;5012694;28;20907;-69
2021/12/08 00:18:21;;;;;;;2.30;2.10;;;5.80;99.90;;;;;;5012740;28;20414;-69
2021/12/08 00:20:47;;;;;;;3.43;1.80;;;5.80;99.90;;;;;;5011971;28;20793;-69
2021/12/08 00:23:14;;;;;;;3.13;2.60;;;5.90;99.90;;;;;;5009972;28;20506;-68
2021/12/08 00:25:40;;;;;;;2.37;2.07;;;5.90;99.90;;;;;;5011616;28;20183;-68
2021/12/08 00:28:07;;;;;;;6.20;2.77;;;5.90;99.90;;;;;;5011781;28;20433;-68
2021/12/08 00:30:34;;;;;;;3.00;2.17;;;5.90;99.90;;;;;;5011801;28;20472;-69
2021/12/08 00:33:00;;;;;;;3.17;1.97;;;5.90;99.90;;;;;;5011515;28;20489;-69
2021/12/08 00:35:27;;;;;;;3.37;2.03;;;5.90;99.90;;;;;;5009755;28;20426;-69
2021/12/08 00:37:54;;;;;;;3.20;2.20;;;6.00;99.90;;;;;;4993896;28;20176;-69
2021/12/08 00:40:20;;;;;;;3.63;2.00;;;5.90;99.90;;;;;;4989802;28;20423;-69
2021/12/08 00:42:47;;;;;;;4.30;2.10;;;6.00;99.90;;;;;;4991950;28;20744;-68
2021/12/08 00:45:14;;;;;;;2.50;2.17;;;6.00;99.90;;;;;;4992281;28;20823;-68
2021/12/08 00:47:41;;;;;;;3.70;2.37;;;6.00;99.90;;;;;;4991985;28;20895;-69
2021/12/08 00:50:09;;;;;;;2.90;2.23;;;6.00;99.90;;;;;;4991990;28;20423;-69
2021/12/08 00:52:35;;;;;;;2.03;1.83;;;6.00;99.90;;;;;;4992961;28;20459;-69
2021/12/08 00:55:02;;;;;;;2.23;1.87;;;6.00;99.90;;;;;;4991774;28;20462;-69
2021/12/08 00:57:28;;;;;;;2.43;1.80;;;5.90;99.90;;;;;;4991656;28;20966;-69
2021/12/08 00:59:53;;;;;;;3.63;1.93;;;6.00;99.90;;;;;;4991931;28;20411;-69
2021/12/08 01:02:19;;;;;;;2.50;2.20;;;5.90;99.90;;;;;;4992956;28;20529;-69
2021/12/08 01:04:44;;;;;;;3.87;2.03;;;5.90;99.90;;;;;;4991686;28;20192;-69
2021/12/08 01:07:10;;;;;;;3.77;2.40;;;5.90;99.90;;;;;;4993458;28;20200;-68
2021/12/08 01:09:36;;;;;;;3.47;1.67;;;5.90;99.90;;;;;;4978034;28;20668;-69
2021/12/08 01:12:02;;;;;;;7.33;2.77;;;5.80;99.90;;;;;;4996406;28;20178;-69
2021/12/08 01:14:33;;;;;;;4.50;2.10;;;5.80;99.90;;;;;;4995067;28;20291;-69
2021/12/08 01:17:01;;;;;;;2.17;2.00;;;5.80;99.90;;;;;;4995293;28;20903;-69
2021/12/08 01:19:27;;;;;;;3.07;2.33;;;5.70;99.90;;;;;;4995321;28;20461;-68
2021/12/08 01:21:53;;;;;;;4.20;2.87;;;5.70;99.90;;;;;;4995301;28;20403;-69
2021/12/08 01:24:20;;;;;;;3.10;2.63;;;5.70;99.90;;;;;;4996021;28;20447;-69
2021/12/08 01:26:46;;;;;;;5.90;2.80;;;5.70;99.90;;;;;;4994776;28;21126;-69
2021/12/08 01:29:11;;;;;;;3.17;2.70;;;5.70;99.90;;;;;;4995210;28;20478;-69
2021/12/08 01:31:41;;;;;;;3.67;2.43;;;5.60;99.90;;;;;;4977667;28;20183;-68
2021/12/08 01:34:08;;;;;;;2.90;2.20;;;5.60;99.90;;;;;;5019836;23;20224;-69
2021/12/08 01:36:34;;;;;;;3.90;2.90;;;5.60;99.90;;;;;;5003593;28;20498;-69
2021/12/08 01:38:59;;;;;;;2.63;2.20;;;5.60;99.90;;;;;;4994881;28;20490;-68
2021/12/08 01:41:25;;;;;;;3.80;2.77;;;5.60;99.90;;;;;;4994816;28;20506;-67
2021/12/08 01:46:36;;;;;;;4.37;2.20;;;5.60;99.90;;;;;;4975244;28;20420;-68
2021/12/08 01:49:03;;;;;;;3.00;2.43;;;5.60;99.90;;;;;;4974932;28;20412;-67
2021/12/08 01:51:30;;;;;;;3.00;2.50;;;5.60;99.90;;;;;;4975140;28;20181;-69
2021/12/08 01:54:01;;;;;;;3.13;2.60;;;5.60;99.90;;;;;;4975196;28;20519;-68
2021/12/08 01:56:28;;;;;;;2.83;2.63;;;5.60;99.90;;;;;;4975711;28;20451;-68
2021/12/08 01:58:54;;;;;;;4.83;3.00;;;5.60;99.90;;;;;;4975029;28;20898;-69
2021/12/08 02:01:24;;;;;;;2.53;2.33;;;5.70;99.90;;;;;;4974927;28;20412;-70
2021/12/08 02:03:50;;;;;;;3.03;2.73;;;5.70;99.90;;;;;;4974737;28;20668;-70
2021/12/08 02:06:17;;;;;;;3.30;2.33;;;5.70;99.90;;;;;;4974170;28;20448;-70
2021/12/08 02:08:43;;;;;;;3.50;3.07;;;5.80;99.90;;;;;;4974044;28;20412;-69
2021/12/08 02:11:09;;;;;;;2.40;2.13;;;5.80;99.90;;;;;;4974822;28;20404;-69
2021/12/08 02:13:38;;;;;;;2.90;2.37;;;5.80;99.90;;;;;;4975658;28;20483;-69
2021/12/08 02:16:10;;;;;;;2.83;2.33;;;5.80;99.90;;;;;;4974310;28;20239;-70
2021/12/08 02:18:36;;;;;;;3.20;2.30;;;5.80;99.90;;;;;;4974150;28;20420;-69
2021/12/08 02:21:18;;;;;;;3.10;2.27;;;5.80;99.90;;;;;;4974308;28;20424;-69
2021/12/08 02:23:44;;;;;;;3.27;2.20;;;5.80;99.90;;;;;;4975647;28;20460;-70
2021/12/08 02:26:09;;;;;;;2.40;2.20;;;5.80;99.90;;;;;;4974034;28;20476;-69
2021/12/08 02:28:35;;;;;;;2.20;2.00;;;5.90;99.90;;;;;;4974464;28;20276;-69
2021/12/08 02:31:05;;;;;;;3.00;2.43;;;5.90;99.90;;;;;;4974394;28;20180;-68
2021/12/08 02:49:42;;;;;;;2.43;2.13;;;6.20;99.90;;;;;;4993444;28;20423;-70
2021/12/08 02:52:10;;;;;;;2.03;1.90;;;6.20;99.90;;;;;;4991821;28;20795;-69
2021/12/08 02:54:42;;;;;;;1.87;1.67;;;6.20;99.90;;;;;;4993280;28;20811;-71
2021/12/08 02:57:09;;;;;;;3.00;2.00;;;6.20;99.90;;;;;;4992870;28;20399;-69
2021/12/08 02:59:36;;;;;;;2.40;2.20;;;6.20;99.90;;;;;;4993229;28;20419;-69
2021/12/08 03:02:03;;;;;;;3.50;2.30;;;6.30;99.90;;;;;;4991616;28;20790;-69
2021/12/08 03:04:28;;;;;;;2.87;2.27;;;6.30;99.90;;;;;;4993113;28;20538;-69
2021/12/08 03:06:54;;;;;;;3.90;2.13;;;6.30;99.90;;;;;;4992946;28;20931;-69
2021/12/08 03:09:20;;;;;;;3.20;2.20;;;6.30;99.90;;;;;;4992927;28;20176;-68
2021/12/08 03:11:51;;;;;;;2.23;2.03;;;6.30;99.90;;;;;;4991482;28;20427;-69
2021/12/08 03:14:17;;;;;;;3.23;2.27;;;6.30;99.90;;;;;;4992872;28;20195;-69
2021/12/08 03:16:49;;;;;;;3.43;2.40;;;6.30;99.90;;;;;;5007715;28;20403;-69
2021/12/08 03:19:15;;;;;;;2.40;2.20;;;6.40;99.90;;;;;;4993051;28;20399;-69
2021/12/08 03:21:41;;;;;;;1.90;1.80;;;6.40;99.90;;;;;;4992939;28;20462;-69
2021/12/08 03:24:17;;;;;;;3.43;2.30;;;6.40;99.90;;;;;;4991222;28;20764;-70
2021/12/08 03:26:50;;;;;;;2.40;2.10;;;6.40;99.90;;;;;;4992620;28;20184;-70
2021/12/08 03:29:28;;;;;;;1.80;1.70;;;6.40;99.90;;;;;;4992614;28;20925;-70
2021/12/08 03:32:03;;;;;;;2.20;2.00;;;6.40;99.90;;;;;;4992456;28;20466;-69
2021/12/08 03:34:30;;;;;;;1.97;1.87;;;6.40;99.90;;;;;;4990754;28;20474;-69
2021/12/08 03:36:56;;;;;;;2.80;2.60;;;6.40;99.90;;;;;;4991656;28;20407;-69
2021/12/08 03:39:21;;;;;;;3.40;2.33;;;6.40;99.90;;;;;;5007625;28;20473;-69
2021/12/08 03:41:47;;;;;;;3.30;2.77;;;6.40;99.90;;;;;;4992651;28;20200;-69
2021/12/08 03:44:13;;;;;;;2.30;2.07;;;6.40;99.90;;;;;;4990979;28;20207;-69
2021/12/08 03:46:41;;;;;;;2.00;1.90;;;6.40;99.90;;;;;;4992436;28;20255;-70
2021/12/08 03:49:10;;;;;;;5.00;2.60;;;6.40;99.90;;;;;;4992448;28;20180;-69
2021/12/08 03:51:37;;;;;;;3.53;2.20;;;6.40;99.90;;;;;;4992530;28;20852;-70
2021/12/08 03:54:06;;;;;;;2.50;2.20;;;6.40;99.90;;;;;;4992402;28;20459;-69
2021/12/08 03:56:33;;;;;;;2.13;1.80;;;6.40;99.90;;;;;;4990667;28;20423;-70
2021/12/08 03:58:58;;;;;;;2.27;1.87;;;6.40;99.90;;;;;;4992495;28;20963;-70
2021/12/08 04:01:24;;;;;;;2.20;2.00;;;6.40;99.90;;;;;;4992336;28;20508;-69
2021/12/08 04:03:51;;;;;;;2.37;1.97;;;6.40;99.90;;;;;;4992125;28;20173;-68
2021/12/08 04:06:32;;;;;;;2.00;1.87;;;6.40;99.90;;;;;;4990532;28;20200;-69
2021/12/08 04:08:58;;;;;;;7.90;2.07;;;6.50;99.90;;;;;;4992599;28;20761;-70
2021/12/08 04:11:26;;;;;;;2.17;2.00;;;6.50;99.90;;;;;;4992371;28;20498;-70
2021/12/08 04:14:06;;;;;;;2.30;2.10;;;6.50;99.90;;;;;;4990809;28;20458;-69
2021/12/08 04:16:37;;;;;;;2.23;2.03;;;6.50;99.90;;;;;;4990434;28;20419;-70
2021/12/08 04:19:05;;;;;;;3.80;2.57;;;6.50;99.90;;;;;;4992333;28;20412;-69
2021/12/08 04:21:31;;;;;;;1.80;1.70;;;6.50;99.90;;;;;;4992300;28;20443;-69
2021/12/08 04:23:57;;;;;;;2.40;2.20;;;6.50;99.90;;;;;;4992001;28;20449;-69
2021/12/08 04:26:37;;;;;;;2.50;2.30;;;6.50;99.90;;;;;;4988779;28;20442;-69
2021/12/08 04:29:05;;;;;;;4.03;2.23;;;6.50;99.90;;;;;;4992348;28;20177;-68
2021/12/08 04:31:35;;;;;;;2.50;2.20;;;6.60;99.90;;;;;;4991925;28;20429;-70
2021/12/08 04:34:05;;;;;;;5.83;2.80;;;6.50;99.90;;;;;;4992380;28;20439;-69
2021/12/08 04:36:42;;;;;;;2.80;2.00;;;6.60;99.90;;;;;;4991746;28;20479;-69
2021/12/08 04:39:15;;;;;;;2.50;2.30;;;6.60;99.90;;;;;;5004276;28;20470;-70
2021/12/08 04:41:46;;;;;;;2.50;2.30;;;6.60;99.90;;;;;;4993501;28;20418;-70
2021/12/08 04:44:38;;;;;;;2.80;2.20;;;6.60;99.90;;;;;;4995962;28;20454;-69
2021/12/08 04:47:23;;;;;;;2.93;2.20;;;6.60;99.90;;;;;;5007341;28;20421;-70
2021/12/08 04:52:36;;;;;;;4.67;2.40;;;6.60;99.90;;;;;;4995901;28;20411;-69
2021/12/08 05:06:06;;;;;;;2.47;1.97;;;6.60;99.90;;;;;;4995426;28;20431;-69
2021/12/08 05:08:41;;;;;;;2.60;2.40;;;6.60;99.90;;;;;;4995597;28;20470;-70
2021/12/08 05:11:29;;;;;;;4.73;2.67;;;6.60;99.90;;;;;;4994777;28;20443;-70
2021/12/08 05:14:00;;;;;;;3.30;2.80;;;6.60;99.90;;;;;;4994409;28;20470;-69
2021/12/08 05:16:27;;;;;;;3.67;2.90;;;6.60;99.90;;;;;;4995128;28;20435;-70
2021/12/08 05:18:55;;;;;;;5.67;3.10;;;6.60;99.90;;;;;;4995274;28;20438;-69
2021/12/08 05:21:29;;;;;;;2.67;2.37;;;6.60;99.90;;;;;;4993596;28;20427;-69
2021/12/08 05:24:14;;;;;;;3.47;2.87;;;6.60;99.90;;;;;;4995206;28;21011;-69
2021/12/08 05:26:58;;;;;;;5.70;2.80;;;6.70;99.90;;;;;;4994860;28;20431;-69
2021/12/08 05:29:28;;;;;;;4.00;2.33;;;6.70;99.90;;;;;;4995455;28;20399;-70
2021/12/08 05:31:57;;;;;;;4.00;2.73;;;6.70;99.90;;;;;;4993693;28;20478;-70
2021/12/08 05:34:23;;;;;;;5.03;2.67;;;6.80;99.90;;;;;;4994592;28;21006;-69
2021/12/08 05:36:49;;;;;;;3.43;2.50;;;6.80;99.90;;;;;;4994343;28;20423;-69
2021/12/08 05:39:20;;;;;;;4.40;2.87;;;6.80;99.90;;;;;;4995265;28;20176;-70
2021/12/08 05:41:48;;;;;;;4.30;2.40;;;6.80;99.90;;;;;;4993588;28;20459;-69
2021/12/08 05:44:14;;;;;;;4.00;2.70;;;6.90;99.90;;;;;;4994564;28;20414;-69
2021/12/08 05:46:43;;;;;;;3.53;2.70;;;6.90;99.90;;;;;;4994552;28;20859;-69
2021/12/08 05:49:12;;;;;;;3.20;2.90;;;6.90;99.90;;;;;;4994666;28;20200;-69
2021/12/08 05:51:40;;;;;;;3.80;2.40;;;6.90;99.90;;;;;;4993299;28;20438;-69
2021/12/08 05:54:13;;;;;;;3.23;2.33;;;6.90;99.90;;;;;;4993516;28;20462;-68
2021/12/08 05:56:41;;;;;;;4.87;2.50;;;6.90;99.90;;;;;;4994412;28;20408;-71
2021/12/08 05:59:08;;;;;;;4.80;2.10;;;6.90;99.90;;;;;;4993390;28;20935;-69
2021/12/08 06:01:47;;;;;;;6.40;2.50;;;6.90;99.90;;;;;;4994217;28;20407;-68
2021/12/08 06:04:13;;;;;;;4.07;2.80;;;6.90;99.90;;;;;;4992641;28;20423;-69
2021/12/08 06:06:39;;;;;;;12.37;6.30;;;6.90;99.90;;;;;;4993879;28;20455;-69
2021/12/08 06:09:08;;;;;;;3.77;3.13;;;7.00;99.90;;;;;;4994311;28;20423;-69
2021/12/08 06:11:34;;;;;;;7.10;2.90;;;7.00;99.90;;;;;;5009103;28;20835;-70
2021/12/08 06:14:00;;;;;;;3.90;2.80;;;6.90;99.90;;;;;;4992314;28;20462;-69
2021/12/08 06:16:28;;;;;;;3.90;2.83;;;6.80;99.90;;;;;;4994018;28;21114;-69
2021/12/08 06:18:54;;;;;;;5.80;2.87;;;6.80;99.90;;;;;;4994034;28;20497;-69
2021/12/08 06:21:23;;;;;;;6.50;3.03;;;6.90;99.90;;;;;;4992810;28;20416;-69
2021/12/08 06:23:50;;;;;;;3.13;2.60;;;6.80;99.90;;;;;;4992193;28;20428;-70
2021/12/08 06:26:20;;;;;;;6.33;2.87;;;6.90;99.90;;;;;;4987763;28;20477;-69
2021/12/08 06:28:48;;;;;;;3.30;2.67;;;6.90;99.90;;;;;;4997486;28;20517;-67
2021/12/08 06:31:16;;;;;;;3.13;2.73;;;6.80;99.90;;;;;;4976554;28;20466;-69
2021/12/08 06:33:42;;;;;;;5.27;2.90;;;6.80;99.90;;;;;;4995448;28;20517;-70
2021/12/08 06:36:15;;;;;;;8.23;2.80;;;6.80;99.90;;;;;;4981519;28;20557;-69
2021/12/08 06:38:43;;;;;;;4.33;3.13;;;6.70;99.90;;;;;;4991590;28;20465;-69
2021/12/08 06:41:17;;;;;;;4.30;2.70;;;6.70;99.90;;;;;;4988223;28;20478;-70
2021/12/08 06:43:50;;;;;;;4.03;3.20;;;6.70;99.90;;;;;;4989068;28;20781;-69
2021/12/08 06:46:17;;;;;;;3.47;2.67;;;6.70;99.90;;;;;;4988114;28;21383;-69
2021/12/08 06:48:47;;;;;;;6.23;2.70;;;6.60;99.90;;;;;;5000603;28;20443;-69
2021/12/08 06:51:25;;;;;;;7.43;2.80;;;6.70;99.90;;;;;;4981546;28;20459;-68
2021/12/08 06:53:56;;;;;;;2.43;2.23;;;6.70;99.90;;;;;;4984792;28;20474;-69
2021/12/08 06:56:27;;;;;;;4.43;2.10;;;6.70;99.90;;;;;;4988149;28;20532;-70
2021/12/08 06:58:58;;;;;;;3.63;3.07;;;6.70;99.90;;;;;;4987811;28;20443;-70
2021/12/08 07:04:13;;;;;;;5.40;2.27;;;6.70;99.90;;;;;;4991452;28;20438;-68
2021/12/08 07:06:59;;;;;;;2.60;1.53;;;6.70;99.90;;;;;;4988755;28;20447;-69
2021/12/08 07:09:36;;;;;;;2.63;1.93;;;6.70;99.90;;;;;;4987526;28;20443;-69
2021/12/08 07:12:08;;;;;;;4.10;2.00;;;6.70;99.90;;;;;;4985627;28;20463;-69
2021/12/08 07:14:35;;;;;;;3.23;2.20;;;6.70;99.90;;;;;;4988648;28;20827;-70
2021/12/08 07:17:06;;;;;;;6.97;2.80;;;6.80;99.90;;;;;;4988382;28;20505;-69
2021/12/08 07:19:45;;;;;;;2.20;1.90;;;6.80;99.90;;;;;;4989279;28;20617;-70
2021/12/08 07:22:19;;;;;;;2.10;1.90;;;6.80;99.90;;;;;;4987801;28;20574;-71
2021/12/08 07:24:47;;;;;;;5.13;2.30;;;6.80;99.90;;;;;;4988432;28;20869;-68
2021/12/08 07:27:23;;;;;;;3.40;1.73;;;6.80;99.90;;;;;;4996991;28;20477;-69
2021/12/08 07:29:49;;;;;;;2.80;2.03;;;6.90;99.90;;;;;;4993267;28;20439;-69
2021/12/08 07:32:22;;;;;;;2.30;1.87;;;6.90;99.90;;;;;;4977711;28;20927;-70
2021/12/08 07:34:51;;;;;;;3.80;2.20;;;6.90;99.90;;;;;;4989547;28;20209;-69
2021/12/08 07:37:23;;;;;;;4.63;1.80;;;6.90;99.90;;;;;;4989150;28;20423;-70
2021/12/08 07:39:58;;;;;;;4.70;2.43;;;6.90;99.90;;;;;;4990177;28;20916;-68
2021/12/08 07:42:31;;;;;;;2.47;1.80;;;6.90;99.90;;;;;;4984223;28;20410;-70
2021/12/08 07:45:03;;;;;;;5.07;1.50;;;6.80;99.90;;;;;;4989261;28;20441;-69
2021/12/08 07:47:30;;;;;;;5.03;2.13;;;6.80;99.90;;;;;;4989084;28;20415;-70
2021/12/08 07:50:17;;;;;;;2.97;2.00;;;6.80;99.90;;;;;;4989823;28;20418;-70
2021/12/08 07:52:46;;;;;;;3.60;1.70;;;6.80;99.90;;;;;;4989036;28;20431;-69
2021/12/08 07:55:17;;;;;;;4.73;2.20;;;6.80;99.90;;;;;;4989765;28;20443;-69
2021/12/08 07:57:43;;;;;;;3.20;1.77;;;6.80;99.90;;;;;;4988977;28;20416;-69
2021/12/08 08:00:20;;;;;;;3.23;2.03;;;6.80;99.90;;;;;;4988406;28;20908;-70
2021/12/08 08:02:46;;;;;;;4.03;1.90;;;6.80;99.90;;;;;;4988183;28;20419;-69
2021/12/08 08:05:12;;;;;;;3.60;1.97;;;6.80;99.90;;;;;;4979467;28;20431;-69
2021/12/08 08:07:40;;;;;;;6.57;2.60;;;6.80;99.90;;;;;;4988722;28;20454;-69
2021/12/08 08:10:13;;;;;;;4.77;2.00;;;6.80;99.90;;;;;;4971306;28;20428;-68
2021/12/08 08:12:39;;;;;;;2.20;1.90;;;6.80;99.90;;;;;;4988775;28;20427;-70
2021/12/08 08:15:15;;;;;;;3.03;2.13;;;6.80;99.90;;;;;;4982982;28;20455;-70
2021/12/08 08:17:44;;;;;;;3.30;1.57;;;6.80;99.90;;;;;;4988095;28;20419;-70
2021/12/08 08:20:15;;;;;;;4.03;1.80;;;6.80;99.90;;;;;;4991008;28;20470;-69
2021/12/08 08:22:42;;;;;;;2.40;1.77;;;6.80;99.90;;;;;;4988427;28;20419;-70
2021/12/08 08:25:10;;;;;;;2.53;2.33;;;6.80;99.90;;;;;;4987479;28;20525;-69
2021/12/08 08:27:36;;;;;;;2.50;2.10;;;6.90;99.90;;;;;;4985470;28;20447;-70
2021/12/08 08:30:08;;;;;;;5.97;1.93;;;6.90;99.90;;;;;;4987594;28;20411;-70
2021/12/08 08:32:39;;;;;;;4.70;2.57;;;6.90;99.90;;;;;;4988326;28;20414;-70
2021/12/08 08:35:31;;;;;;;3.77;1.97;;;6.90;99.90;;;;;;4984116;28;20538;-70
2021/12/08 08:37:59;;;;;;;3.23;2.93;;;6.90;99.90;;;;;;4984312;28;20463;-69
2021/12/08 08:40:32;;;;;;;4.70;2.10;;;6.90;99.90;;;;;;4973570;28;20427;-69
2021/12/08 08:42:59;;;;;;;6.83;2.20;;;6.90;99.90;;;;;;4988447;28;21199;-71
2021/12/08 08:45:31;;;;;;;4.10;2.20;;;7.00;99.90;;;;;;4988023;28;20469;-69
2021/12/08 08:48:02;;;;;;;3.30;1.60;;;7.00;99.90;;;;;;4988424;28;21027;-69
2021/12/08 08:50:38;;;;;;;4.33;2.10;;;7.00;99.90;;;;;;4987202;28;20416;-71
2021/12/08 08:53:04;;;;;;;5.13;1.67;;;7.00;99.90;;;;;;4977477;28;20453;-70
2021/12/08 08:55:35;;;;;;;5.93;1.93;;;7.00;99.90;;;;;;4988003;28;20974;-69
2021/12/08 08:58:03;;;;;;;3.47;2.00;;;7.00;99.90;;;;;;4988265;28;20467;-69
2021/12/08 09:00:34;;;;;;;5.73;2.50;;;7.00;99.90;;;;;;4988392;28;20421;-70
2021/12/08 09:03:10;;;;;;;5.33;2.17;;;7.10;99.90;;;;;;4980131;28;20458;-69
2021/12/08 09:05:55;;;;;;;2.87;1.57;;;7.10;99.90;;;;;;4988011;28;20956;-69
2021/12/08 09:08:24;;;;;;;2.60;1.60;;;7.10;99.90;;;;;;4987930;28;20502;-70
2021/12/08 09:11:07;;;;;;;4.03;1.93;;;7.20;99.90;;;;;;4988325;28;20480;-69
2021/12/08 09:13:39;;;;;;;2.77;1.70;;;7.20;99.90;;;;;;4984098;28;20880;-71
2021/12/08 09:16:09;;;;;;;5.43;1.97;;;7.10;99.90;;;;;;4987473;28;20913;-71
2021/12/08 09:18:53;;;;;;;3.67;1.97;;;7.10;99.90;;;;;;4987955;28;20494;-69
2021/12/08 09:21:29;;;;;;;5.97;1.97;;;7.20;99.90;;;;;;4988262;28;20415;-71
2021/12/08 09:24:06;;;;;;;5.37;3.00;;;7.20;99.90;;;;;;4975139;28;20451;-70
2021/12/08 09:26:35;;;;;;;5.10;2.00;;;7.20;99.90;;;;;;4974972;28;20431;-69
2021/12/08 09:29:13;;;;;;;2.73;1.67;;;7.20;99.90;;;;;;4989470;28;20426;-69
2021/12/08 09:31:46;;;;;;;4.60;1.97;;;7.30;99.90;;;;;;4991408;28;20427;-70
2021/12/08 09:34:27;;;;;;;4.23;2.73;;;7.30;99.90;;;;;;4983051;28;20466;-70
2021/12/08 09:37:03;;;;;;;2.73;1.73;;;7.30;99.90;;;;;;4979237;28;20526;-70
2021/12/08 09:39:40;;;;;;;3.00;2.70;;;7.30;99.90;;;;;;4990989;28;20429;-70
2021/12/08 09:42:17;;;;;;;3.60;2.10;;;7.30;99.90;;;;;;4989908;28;20600;-70
2021/12/08 09:44:48;;;;;;;9.60;2.37;;;7.40;99.90;;;;;;4976889;28;20467;-70
2021/12/08 09:47:14;;;;;;;4.97;1.77;;;7.40;99.90;;;;;;4989849;28;20471;-70
2021/12/08 09:49:40;;;;;;;3.30;2.33;;;7.40;99.90;;;;;;4990120;28;20411;-70
2021/12/08 09:52:08;;;;;;;5.00;2.13;;;7.40;99.90;;;;;;4990904;28;20191;-69
2021/12/08 09:54:37;;;;;;;6.63;1.80;;;7.40;99.90;;;;;;4990412;28;20475;-70
2021/12/08 09:57:07;;;;;;;4.53;2.10;;;7.50;99.90;;;;;;4990550;28;20888;-69
2021/12/08 09:59:33;;;;;;;3.23;1.90;;;7.40;99.90;;;;;;4990525;28;20420;-69
2021/12/08 10:02:03;;;;;;;5.33;2.57;;;7.40;99.90;;;;;;4991071;28;20561;-71
2021/12/08 10:04:28;;;;;;;2.90;1.60;;;7.50;99.90;;;;;;4990559;28;20529;-71
2021/12/08 10:07:00;;;;;;;6.37;1.97;;;7.50;99.90;;;;;;4979174;28;20437;-71
2021/12/08 10:09:26;;;;;;;6.20;2.17;;;7.60;99.90;;;;;;4990654;28;20231;-70
2021/12/08 10:11:54;;;;;;;3.60;2.03;;;7.60;99.90;;;;;;4990792;28;20427;-70
2021/12/08 10:14:20;;;;;;;2.93;1.90;;;7.60;99.90;;;;;;4990309;28;20482;-71
2021/12/08 10:16:50;;;;;;;2.50;1.70;;;7.70;99.90;;;;;;4985165;28;20423;-70
2021/12/08 10:19:17;;;;;;;3.73;2.07;;;7.70;99.90;;;;;;4990579;28;20417;-70
2021/12/08 10:21:45;;;;;;;3.67;2.30;;;7.70;99.90;;;;;;4990482;28;20419;-71
2021/12/08 10:24:21;;;;;;;2.57;1.70;;;7.80;99.90;;;;;;4990551;28;20415;-70
2021/12/08 10:26:49;;;;;;;2.03;1.67;;;7.80;99.90;;;;;;4989224;28;20422;-70
2021/12/08 10:29:15;;;;;;;5.17;2.30;;;7.80;99.90;;;;;;4990614;28;20451;-71
2021/12/08 10:31:53;;;;;;;5.17;2.00;;;7.80;99.90;;;;;;4990497;28;20412;-70
2021/12/08 10:34:23;;;;;;;6.57;2.60;;;7.80;99.90;;;;;;4990188;28;20467;-71
2021/12/08 10:36:56;;;;;;;4.40;2.10;;;7.90;99.90;;;;;;4988096;28;20423;-69
2021/12/08 10:39:32;;;;;;;2.83;1.63;;;7.90;99.90;;;;;;4991930;28;20427;-70
2021/12/08 10:42:18;;;;;;;5.57;2.70;;;8.00;99.90;;;;;;4984472;28;20982;-69
2021/12/08 10:45:22;;;;;;;3.10;2.07;;;8.00;99.90;;;;;;4972001;28;20423;-70
2021/12/08 10:47:57;;;;;;;4.00;2.30;;;7.90;99.90;;;;;;5006331;28;20550;-70
2021/12/08 10:56:09;;;;;;;3.73;2.00;;;7.90;99.90;;;;;;5006402;28;20537;-70
2021/12/08 10:58:39;;;;;;;4.33;1.87;;;7.90;99.90;;;;;;5006259;28;20431;-69
2021/12/08 11:01:16;;;;;;;5.00;2.53;;;7.90;99.90;;;;;;5003777;28;20419;-70
2021/12/08 11:03:43;;;;;;;6.17;2.10;;;7.80;99.90;;;;;;4989781;28;21459;-70
2021/12/08 11:06:13;;;;;;;3.83;1.80;;;7.90;99.90;;;;;;5005733;28;20455;-69
2021/12/08 11:08:41;;;;;;;8.67;2.03;;;7.90;99.90;;;;;;5006321;28;20858;-70
2021/12/08 11:11:10;;;;;;;3.73;2.30;;;7.90;99.90;;;;;;5006263;28;20809;-67
2021/12/08 11:13:39;;;;;;;5.77;2.40;;;8.00;99.90;;;;;;4994571;28;20967;-68
2021/12/08 11:16:33;;;;;;;6.60;2.70;;;8.10;99.90;;;;;;5005589;28;20533;-68
2021/12/08 11:19:05;;;;;;;9.20;2.97;;;8.20;99.90;;;;;;5003296;28;20434;-68
2021/12/08 11:21:37;;;;;;;5.80;2.33;;;8.30;99.90;;;;;;5000933;28;20552;-67
2021/12/08 11:24:12;;;;;;;3.70;2.40;;;8.50;99.90;;;;;;4998536;28;20427;-68
2021/12/08 11:26:41;;;;;;;4.17;2.30;;;8.60;99.90;;;;;;4989168;28;21144;-68
2021/12/08 11:29:09;;;;;;;4.23;2.13;;;8.70;99.90;;;;;;4989483;28;20453;-68
2021/12/08 11:31:51;;;;;;;3.67;2.17;;;8.80;99.90;;;;;;4982521;28;20948;-68
2021/12/08 11:34:20;;;;;;;4.07;2.10;;;8.80;99.90;;;;;;4985637;28;20453;-69
2021/12/08 11:36:51;;;;;;;5.43;2.13;;;8.90;99.90;;;;;;4987089;28;20426;-69
2021/12/08 11:39:21;;;;;;;5.30;1.70;;;8.80;99.90;;;;;;4993154;28;20466;-70
2021/12/08 11:41:56;;;;;;;2.93;1.77;;;8.70;99.90;;;;;;4984441;28;20424;-70
2021/12/08 11:44:27;;;;;;;3.20;1.90;;;8.60;99.90;;;;;;4988698;28;20437;-70
2021/12/08 11:47:14;;;;;;;6.43;2.60;;;8.60;99.90;;;;;;4988425;28;21107;-70
2021/12/08 11:49:54;;;;;;;2.97;1.63;;;8.60;99.90;;;;;;4989407;28;20415;-69
2021/12/08 11:52:29;;;;;;;3.20;1.77;;;8.60;99.90;;;;;;4986102;28;20431;-69
2021/12/08 11:55:07;;;;;;;5.03;2.30;;;8.50;99.90;;;;;;4988169;28;20477;-70
2021/12/08 11:57:44;;;;;;;4.53;1.73;;;8.40;99.90;;;;;;4986035;28;20847;-69
2021/12/08 12:00:30;;;;;;;4.83;1.93;;;8.40;99.90;;;;;;4988194;28;20441;-70
2021/12/08 12:02:59;;;;;;;4.30;1.50;;;8.40;99.90;;;;;;4986651;28;20426;-70
2021/12/08 12:05:32;;;;;;;4.17;2.03;;;8.40;99.90;;;;;;4982442;28;20814;-69
2021/12/08 12:07:59;;;;;;;4.83;1.80;;;8.30;99.90;;;;;;4994805;28;20430;-69
2021/12/08 12:10:29;;;;;;;5.10;2.60;;;8.30;99.90;;;;;;4996072;28;20416;-70
2021/12/08 12:12:54;;;;;;;2.60;1.70;;;8.30;99.90;;;;;;4988541;28;20445;-70
2021/12/08 12:15:23;;;;;;;2.80;1.97;;;8.20;99.90;;;;;;4988596;28;20459;-70
2021/12/08 12:17:49;;;;;;;5.93;2.27;;;8.20;99.90;;;;;;4987891;28;20205;-69
2021/12/08 12:20:38;;;;;;;4.10;2.00;;;8.20;99.90;;;;;;4984407;28;21186;-69
2021/12/08 12:23:21;;;;;;;2.77;1.60;;;8.20;99.90;;;;;;4987602;28;20970;-70
2021/12/08 12:26:11;;;;;;;3.90;1.70;;;8.10;99.90;;;;;;5004918;28;20540;-69
2021/12/08 12:28:37;;;;;;;3.70;1.80;;;8.10;99.90;;;;;;4992795;28;20450;-68
2021/12/08 12:31:24;;;;;;;5.47;1.80;;;8.10;99.90;;;;;;5001197;28;20491;-69
2021/12/08 12:33:51;;;;;;;6.07;2.67;;;8.10;99.90;;;;;;4994608;28;20227;-70
2021/12/08 12:36:30;;;;;;;4.57;2.40;;;8.10;99.90;;;;;;5000362;28;20922;-70
2021/12/08 12:39:14;;;;;;;4.43;1.90;;;8.10;99.90;;;;;;4981404;28;20499;-70
2021/12/08 12:41:40;;;;;;;4.07;2.03;;;8.10;99.90;;;;;;4978909;28;20428;-70
2021/12/08 12:44:15;;;;;;;3.07;1.67;;;8.10;99.90;;;;;;4987436;28;20473;-68
2021/12/08 12:47:10;;;;;;;2.33;1.70;;;8.10;99.90;;;;;;4987906;28;20451;-70
2021/12/08 12:49:37;;;;;;;2.83;1.60;;;8.10;99.90;;;;;;4988331;28;20538;-68
2021/12/08 12:52:06;;;;;;;1.93;1.40;;;8.10;99.90;;;;;;4987929;28;20479;-69
2021/12/08 12:54:32;;;;;;;9.93;2.00;;;8.00;99.90;;;;;;4988154;28;20478;-70
2021/12/08 12:56:59;;;;;;;3.27;1.80;;;8.00;99.90;;;;;;4988168;28;20913;-71
2021/12/08 12:59:38;;;;;;;3.40;1.73;;;8.00;99.90;;;;;;4989929;28;20968;-70
2021/12/08 13:02:23;;;;;;;6.40;1.70;;;8.00;99.90;;;;;;4988567;28;20454;-71
2021/12/08 13:05:11;;;;;;;9.10;2.00;;;7.90;99.90;;;;;;4991978;28;20497;-70
2021/12/08 13:07:54;;;;;;;4.30;1.97;;;7.90;99.90;;;;;;4990583;28;20562;-71
2021/12/08 13:10:28;;;;;;;3.13;1.73;;;8.00;99.90;;;;;;4991882;28;20431;-70
2021/12/08 13:13:07;;;;;;;7.73;2.13;;;8.00;99.90;;;;;;4990854;28;20412;-71
2021/12/08 13:15:33;;;;;;;4.73;1.77;;;8.00;99.90;;;;;;4991879;28;20438;-70
2021/12/08 13:18:11;;;;;;;4.20;1.90;;;7.90;99.90;;;;;;4992204;28;20790;-69
2021/12/08 13:20:43;;;;;;;3.70;1.90;;;7.90;99.90;;;;;;4991577;28;20186;-70
2021/12/08 13:23:17;;;;;;;3.93;1.83;;;7.90;99.90;;;;;;4992249;28;20906;-71
2021/12/08 13:28:23;;;;;;;7.20;2.37;;;7.90;99.90;;;;;;4991605;28;20421;-71
2021/12/08 13:30:56;;;;;;;5.17;1.83;;;7.90;99.90;;;;;;4991292;28;20944;-69
2021/12/08 13:33:34;;;;;;;3.30;1.70;;;7.90;99.90;;;;;;4991778;28;20453;-70
2021/12/08 13:36:28;;;;;;;3.77;2.10;;;7.80;99.90;;;;;;4989590;28;20471;-71
2021/12/08 13:38:57;;;;;;;2.97;1.57;;;7.90;99.90;;;;;;4995579;28;20436;-71
2021/12/08 13:41:27;;;;;;;4.80;2.27;;;7.90;99.90;;;;;;4991476;28;20510;-71
2021/12/08 13:43:54;;;;;;;5.10;2.30;;;7.90;99.90;;;;;;4992048;28;20882;-70
2021/12/08 13:46:40;;;;;;;4.30;2.13;;;7.80;99.90;;;;;;4991360;28;20574;-70
2021/12/08 13:49:22;;;;;;;5.07;2.10;;;7.80;99.90;;;;;;4991653;28;20418;-70
2021/12/08 13:52:06;;;;;;;7.43;2.67;;;7.80;99.90;;;;;;4991544;28;20415;-71
2021/12/08 13:54:38;;;;;;;3.80;2.43;;;7.80;99.90;;;;;;4992621;28;20474;-70
2021/12/08 13:57:25;;;;;;;7.43;2.07;;;7.80;99.90;;;;;;4993130;28;20416;-72
2021/12/08 13:59:53;;;;;;;5.70;2.30;;;7.80;99.90;;;;;;4992767;28;20434;-71
2021/12/08 14:02:38;;;;;;;5.60;2.47;;;7.70;99.90;;;;;;4992073;28;20411;-69
2021/12/08 14:05:12;;;;;;;3.20;1.93;;;7.60;99.90;;;;;;4993886;28;20451;-70